Terminal Aerodrome Forecast
Issued by NWS

Home | Current Version | Previous Version | Text Only | Print | Product List | Glossary Off
Versions: 1 2 3 4 5 6 7 8 9 10 11 12 13 14 15 16 17

127
FTUS43 KGRB 211629 AAB
TAFCWA
TAF AMD
KCWA 211629Z 2116/2212 03004KT P6SM BKN015
      TEMPO 2116/2120 SCT015
     FM212200 12005KT P6SM VCTS BKN020 BKN100CB
     FM220600 15005KT P6SM SCT030 BKN050
     FM220900 17005KT P6SM SCT050=

USA.gov is the U.S. government's official web portal to all federal, state and local government web resources and services.